Time;durP1;ratioP1;P1;durP2;ratioP2;P2;SDS_P1;SDS_P2;PMS_P1;PMS_P2;Temp;Humidity;BMP_temperature;BMP_pressure;BME280_temperature;BME280_humidity;BME280_pressure;Samples;Min_cycle;Max_cycle;Signal;HPM_P1;HPM_P2
2022/10/01 00:01:53;;;;;;;39.80;24.40;;;;;;;;;;748028;186;821113;-67
2022/10/01 00:04:19;;;;;;;42.77;22.63;;;;;;;;;;744813;187;919263;-66
2022/10/01 00:06:45;;;;;;;38.67;23.30;;;;;;;;;;741834;186;877340;-67
2022/10/01 00:09:11;;;;;;;38.23;24.53;;;;;;;;;;743454;187;915402;-66
2022/10/01 00:11:37;;;;;;;39.50;24.20;;;;;;;;;;729846;186;916723;-64
2022/10/01 00:14:02;;;;;;;34.80;21.60;;;;;;;;;;746110;185;917428;-64
2022/10/01 00:16:28;;;;;;;41.50;22.62;;;;;;;;;;741661;186;1006397;-64
2022/10/01 00:18:54;;;;;;;40.30;21.73;;;;;;;;;;749806;186;918397;-66
2022/10/01 00:21:20;;;;;;;40.13;24.37;;;;;;;;;;743317;187;919552;-63
2022/10/01 00:23:46;;;;;;;37.57;23.20;;;;;;;;;;742144;187;919159;-66
2022/10/01 00:26:12;;;;;;;40.23;22.20;;;;;;;;;;749522;187;816232;-64
2022/10/01 00:28:38;;;;;;;39.83;23.17;;;;;;;;;;742559;187;919234;-66
2022/10/01 00:31:05;;;;;;;38.70;24.73;;;;;;;;;;744137;186;919482;-67
2022/10/01 00:33:29;;;;;;;40.90;25.33;;;;;;;;;;748090;186;922266;-64
2022/10/01 00:35:55;;;;;;;43.63;23.38;;;;;;;;;;743540;185;817344;-65
2022/10/01 00:38:21;;;;;;;34.93;21.93;;;;;;;;;;743291;184;823654;-66
2022/10/01 00:40:47;;;;;;;35.20;23.40;;;;;;;;;;740634;187;919821;-67
2022/10/01 00:43:17;;;;;;;34.97;23.53;;;;;;;;;;745836;186;918610;-64
2022/10/01 00:45:43;;;;;;;40.33;23.97;;;;;;;;;;740317;187;891729;-64
2022/10/01 00:48:08;;;;;;;40.07;25.07;;;;;;;;;;742798;187;917679;-67
2022/10/01 00:50:34;;;;;;;37.30;23.00;;;;;;;;;;747220;187;919047;-66
2022/10/01 00:53:00;;;;;;;39.45;23.75;;;;;;;;;;744282;187;920181;-66
2022/10/01 00:55:26;;;;;;;41.43;25.00;;;;;;;;;;744112;187;919525;-67
2022/10/01 00:57:52;;;;;;;36.17;25.00;;;;;;;;;;749979;185;618933;-64
2022/10/01 01:00:18;;;;;;;36.20;24.03;;;;;;;;;;741297;186;626123;-64
2022/10/01 01:02:44;;;;;;;48.37;26.57;;;;;;;;;;746334;186;816729;-66
2022/10/01 01:05:12;;;;;;;38.27;24.17;;;;;;;;;;745705;187;616486;-64
2022/10/01 01:07:35;;;;;;;40.20;22.93;;;;;;;;;;750390;187;619243;-67
2022/10/01 01:10:01;;;;;;;36.83;23.07;;;;;;;;;;742177;187;920208;-67
2022/10/01 01:12:33;;;;;;;37.57;23.20;;;;;;;;;;743019;186;918779;-64
2022/10/01 01:15:06;;;;;;;33.97;21.40;;;;;;;;;;743822;187;921309;-66
2022/10/01 01:17:33;;;;;;;32.60;22.40;;;;;;;;;;744462;186;921133;-64
2022/10/01 01:19:59;;;;;;;35.33;21.95;;;;;;;;;;735256;187;921414;-67
2022/10/01 01:22:24;;;;;;;31.57;19.53;;;;;;;;;;742102;187;911210;-64
2022/10/01 01:24:51;;;;;;;32.57;20.50;;;;;;;;;;749760;186;916532;-67
2022/10/01 01:27:37;;;;;;;37.13;20.90;;;;;;;;;;746228;184;827113;-67
2022/10/01 01:30:07;;;;;;;30.67;19.80;;;;;;;;;;746771;185;914879;-66
2022/10/01 01:32:34;;;;;;;28.70;17.70;;;;;;;;;;743949;186;839741;-68
2022/10/01 01:35:01;;;;;;;37.92;19.52;;;;;;;;;;741885;186;914843;-66
2022/10/01 01:37:26;;;;;;;32.70;21.03;;;;;;;;;;750008;187;881584;-69
2022/10/01 01:39:52;;;;;;;32.53;18.60;;;;;;;;;;746290;187;816709;-68
2022/10/01 01:42:20;;;;;;;34.07;21.47;;;;;;;;;;746150;187;919106;-68
2022/10/01 01:44:44;;;;;;;29.90;19.43;;;;;;;;;;741870;187;916368;-66
2022/10/01 01:47:10;;;;;;;33.25;20.02;;;;;;;;;;744524;186;915665;-65
2022/10/01 01:49:38;;;;;;;33.50;20.13;;;;;;;;;;740302;186;920814;-65
2022/10/01 01:52:03;;;;;;;34.37;20.60;;;;;;;;;;742472;186;918945;-66
2022/10/01 01:54:28;;;;;;;41.93;23.97;;;;;;;;;;749222;187;919488;-66
2022/10/01 01:56:55;;;;;;;32.03;21.40;;;;;;;;;;742034;187;919902;-68
2022/10/01 01:59:21;;;;;;;39.10;21.63;;;;;;;;;;743222;187;918619;-68
2022/10/01 02:01:48;;;;;;;33.50;20.80;;;;;;;;;;745522;186;919693;-68
2022/10/01 02:04:12;;;;;;;33.63;21.67;;;;;;;;;;746286;186;918996;-68
2022/10/01 02:06:41;;;;;;;33.97;20.37;;;;;;;;;;741649;187;935463;-68
2022/10/01 02:09:10;;;;;;;41.00;23.20;;;;;;;;;;739050;187;915571;-67
2022/10/01 02:11:37;;;;;;;35.00;22.43;;;;;;;;;;747449;187;917458;-66
2022/10/01 02:14:03;;;;;;;35.33;20.87;;;;;;;;;;742625;187;917878;-65
2022/10/01 02:16:29;;;;;;;37.90;22.00;;;;;;;;;;739863;187;918824;-65
2022/10/01 02:18:57;;;;;;;31.83;21.10;;;;;;;;;;745610;187;932768;-65
2022/10/01 02:21:26;;;;;;;39.42;22.45;;;;;;;;;;745472;186;818955;-68
2022/10/01 02:23:53;;;;;;;30.30;18.50;;;;;;;;;;741908;187;921144;-65
2022/10/01 02:26:19;;;;;;;37.53;21.03;;;;;;;;;;742872;184;818773;-65
2022/10/01 02:28:44;;;;;;;35.00;21.80;;;;;;;;;;748816;187;818193;-65
2022/10/01 02:31:10;;;;;;;43.20;22.00;;;;;;;;;;744996;186;919497;-67
2022/10/01 02:33:36;;;;;;;41.67;22.47;;;;;;;;;;745688;187;916373;-66
2022/10/01 02:36:02;;;;;;;41.47;21.50;;;;;;;;;;749903;186;817087;-65
2022/10/01 02:38:28;;;;;;;57.23;22.83;;;;;;;;;;742439;185;918475;-65
2022/10/01 02:40:54;;;;;;;39.60;21.97;;;;;;;;;;742782;185;918516;-67
2022/10/01 02:43:20;;;;;;;48.22;24.52;;;;;;;;;;746090;187;919277;-65
2022/10/01 02:45:45;;;;;;;40.97;21.60;;;;;;;;;;748245;184;865561;-65
2022/10/01 02:48:11;;;;;;;36.27;19.97;;;;;;;;;;741858;186;919948;-67
2022/10/01 02:50:39;;;;;;;38.37;21.13;;;;;;;;;;742560;187;919479;-67
2022/10/01 02:53:05;;;;;;;63.90;22.57;;;;;;;;;;746959;187;918622;-67
2022/10/01 02:55:31;;;;;;;47.73;22.67;;;;;;;;;;744475;187;919497;-67
2022/10/01 02:57:57;;;;;;;63.70;23.30;;;;;;;;;;742369;186;923411;-65
2022/10/01 03:00:22;;;;;;;69.47;23.70;;;;;;;;;;747958;186;920245;-67
2022/10/01 03:02:48;;;;;;;57.63;24.20;;;;;;;;;;741905;187;918684;-67
2022/10/01 03:05:14;;;;;;;40.63;24.70;;;;;;;;;;743489;187;909067;-65
2022/10/01 03:07:40;;;;;;;44.40;23.93;;;;;;;;;;744653;186;916184;-67
2022/10/01 03:10:06;;;;;;;38.57;22.07;;;;;;;;;;753199;186;918406;-65
2022/10/01 03:12:32;;;;;;;46.40;24.23;;;;;;;;;;742986;187;918373;-65
2022/10/01 03:14:58;;;;;;;38.20;23.70;;;;;;;;;;742694;187;912993;-65
2022/10/01 03:17:23;;;;;;;39.77;22.30;;;;;;;;;;748052;187;911958;-67
2022/10/01 03:19:49;;;;;;;35.90;20.97;;;;;;;;;;744436;186;916803;-67
2022/10/01 03:22:17;;;;;;;38.60;22.00;;;;;;;;;;741389;187;917613;-67
2022/10/01 03:24:41;;;;;;;39.23;23.00;;;;;;;;;;751482;186;795462;-67
2022/10/01 03:27:07;;;;;;;41.27;23.40;;;;;;;;;;744885;184;913014;-64
2022/10/01 03:29:33;;;;;;;42.57;25.80;;;;;;;;;;742230;187;919257;-66
2022/10/01 03:31:59;;;;;;;51.23;28.17;;;;;;;;;;752935;187;913945;-65
2022/10/01 03:34:24;;;;;;;40.87;25.03;;;;;;;;;;741061;187;917615;-68
2022/10/01 03:36:51;;;;;;;48.70;28.00;;;;;;;;;;742071;187;919944;-67
2022/10/01 03:39:17;;;;;;;44.10;27.13;;;;;;;;;;742220;186;918483;-65
2022/10/01 03:41:43;;;;;;;38.43;25.07;;;;;;;;;;748781;186;928107;-65
2022/10/01 03:44:09;;;;;;;38.27;25.33;;;;;;;;;;744562;187;919188;-67
2022/10/01 03:46:35;;;;;;;34.07;22.80;;;;;;;;;;742905;186;919484;-66
2022/10/01 03:49:01;;;;;;;41.00;25.63;;;;;;;;;;748473;187;920402;-67
2022/10/01 03:51:27;;;;;;;37.53;23.90;;;;;;;;;;744632;186;920546;-67
2022/10/01 03:53:52;;;;;;;37.58;21.98;;;;;;;;;;743269;186;918068;-65
2022/10/01 03:56:18;;;;;;;41.93;26.17;;;;;;;;;;747815;187;918495;-68
2022/10/01 03:58:44;;;;;;;37.60;23.70;;;;;;;;;;745136;187;815821;-66
2022/10/01 04:01:10;;;;;;;38.70;24.47;;;;;;;;;;742317;185;919043;-66
2022/10/01 04:03:36;;;;;;;45.10;25.10;;;;;;;;;;745618;187;943463;-67
2022/10/01 04:06:01;;;;;;;39.37;24.03;;;;;;;;;;756369;184;919149;-68
2022/10/01 04:08:27;;;;;;;41.97;24.67;;;;;;;;;;745201;186;861234;-66
2022/10/01 04:10:53;;;;;;;38.20;22.37;;;;;;;;;;740696;186;918141;-66
2022/10/01 04:13:19;;;;;;;36.20;22.67;;;;;;;;;;747912;187;915605;-68
2022/10/01 04:15:45;;;;;;;48.50;25.70;;;;;;;;;;742932;187;919632;-67
2022/10/01 04:18:11;;;;;;;39.00;23.33;;;;;;;;;;742718;184;918791;-68
2022/10/01 04:20:37;;;;;;;41.13;24.87;;;;;;;;;;748073;187;919095;-66
2022/10/01 04:23:02;;;;;;;43.87;23.60;;;;;;;;;;743568;187;941336;-67
2022/10/01 04:25:28;;;;;;;38.40;23.83;;;;;;;;;;744254;187;918847;-67
2022/10/01 04:27:56;;;;;;;36.37;23.83;;;;;;;;;;744144;187;918302;-68
2022/10/01 04:30:22;;;;;;;32.30;21.33;;;;;;;;;;746390;186;918899;-65
2022/10/01 04:32:48;;;;;;;40.60;25.27;;;;;;;;;;738123;187;919887;-65
2022/10/01 04:35:14;;;;;;;36.33;23.20;;;;;;;;;;738958;186;921038;-67
2022/10/01 04:37:40;;;;;;;41.57;23.57;;;;;;;;;;747964;187;914939;-66
2022/10/01 04:40:06;;;;;;;40.93;24.57;;;;;;;;;;743624;186;817151;-65
2022/10/01 04:42:32;;;;;;;35.30;22.73;;;;;;;;;;742063;186;925141;-67
2022/10/01 04:44:58;;;;;;;34.80;22.90;;;;;;;;;;747133;187;918755;-65
2022/10/01 04:47:24;;;;;;;37.60;20.30;;;;;;;;;;744213;186;919409;-66
2022/10/01 04:49:50;;;;;;;33.97;21.07;;;;;;;;;;742590;187;917565;-68
2022/10/01 04:52:15;;;;;;;36.97;21.67;;;;;;;;;;742428;187;920692;-65
2022/10/01 04:54:41;;;;;;;39.93;23.10;;;;;;;;;;748900;185;917700;-65
2022/10/01 04:57:07;;;;;;;39.73;21.07;;;;;;;;;;744415;186;918999;-68
2022/10/01 04:59:33;;;;;;;34.93;20.83;;;;;;;;;;744207;187;918194;-66
2022/10/01 05:01:59;;;;;;;34.55;20.90;;;;;;;;;;750404;186;920027;-65
2022/10/01 05:04:26;;;;;;;37.70;22.50;;;;;;;;;;743183;185;817108;-65
2022/10/01 05:06:51;;;;;;;40.40;22.80;;;;;;;;;;742846;187;914995;-65
2022/10/01 05:09:16;;;;;;;36.67;21.37;;;;;;;;;;750682;187;913898;-66
2022/10/01 05:11:42;;;;;;;30.67;20.17;;;;;;;;;;746001;187;872430;-65
2022/10/01 05:14:08;;;;;;;38.85;20.75;;;;;;;;;;743520;187;919225;-68
2022/10/01 05:16:34;;;;;;;34.70;20.50;;;;;;;;;;748649;187;830758;-68
2022/10/01 05:19:00;;;;;;;36.20;20.40;;;;;;;;;;743298;184;918925;-68
2022/10/01 05:21:25;;;;;;;40.20;22.50;;;;;;;;;;741714;186;918929;-66
2022/10/01 05:23:51;;;;;;;40.30;22.80;;;;;;;;;;743042;186;921194;-66
2022/10/01 05:26:17;;;;;;;34.23;21.50;;;;;;;;;;745359;186;919058;-69
2022/10/01 05:28:44;;;;;;;43.97;25.00;;;;;;;;;;743279;186;921546;-66
2022/10/01 05:31:10;;;;;;;40.10;24.40;;;;;;;;;;740435;187;921412;-68
2022/10/01 05:33:35;;;;;;;35.90;24.17;;;;;;;;;;749222;187;876844;-68
2022/10/01 05:36:03;;;;;;;44.80;25.87;;;;;;;;;;745847;186;811971;-66
2022/10/01 05:38:27;;;;;;;45.72;25.65;;;;;;;;;;747340;187;823811;-68
2022/10/01 05:40:53;;;;;;;46.60;26.40;;;;;;;;;;748694;187;816834;-68
2022/10/01 05:43:19;;;;;;;47.23;26.07;;;;;;;;;;742756;187;896647;-66
2022/10/01 05:45:45;;;;;;;36.80;24.20;;;;;;;;;;743901;186;816871;-67
2022/10/01 05:48:11;;;;;;;44.53;26.37;;;;;;;;;;739938;187;918416;-66
2022/10/01 05:50:39;;;;;;;39.93;25.80;;;;;;;;;;746429;185;913617;-69
2022/10/01 05:53:02;;;;;;;46.50;26.43;;;;;;;;;;742144;186;865376;-69
2022/10/01 05:55:33;;;;;;;45.20;28.57;;;;;;;;;;744623;186;812100;-66
2022/10/01 05:57:57;;;;;;;41.90;24.60;;;;;;;;;;746168;187;919255;-66
2022/10/01 06:00:22;;;;;;;40.10;23.60;;;;;;;;;;743550;186;885221;-68
2022/10/01 06:02:49;;;;;;;39.83;24.73;;;;;;;;;;743128;186;922158;-66
2022/10/01 06:05:15;;;;;;;39.73;22.70;;;;;;;;;;745626;187;918267;-66
2022/10/01 06:07:41;;;;;;;38.97;22.70;;;;;;;;;;742364;187;917725;-66
2022/10/01 06:10:08;;;;;;;34.93;21.90;;;;;;;;;;741019;186;918815;-66
2022/10/01 06:12:33;;;;;;;34.00;22.73;;;;;;;;;;742153;186;918731;-66
2022/10/01 06:14:59;;;;;;;35.47;25.67;;;;;;;;;;751316;183;797089;-67
2022/10/01 06:17:25;;;;;;;41.53;24.70;;;;;;;;;;743924;186;915797;-66
2022/10/01 06:19:51;;;;;;;35.10;23.73;;;;;;;;;;742900;186;823034;-68
2022/10/01 06:22:16;;;;;;;37.73;23.07;;;;;;;;;;751145;184;919394;-68
2022/10/01 06:24:42;;;;;;;35.43;21.40;;;;;;;;;;741807;187;917596;-67
2022/10/01 06:27:10;;;;;;;40.23;23.33;;;;;;;;;;744851;187;834712;-69
2022/10/01 06:29:34;;;;;;;33.93;22.60;;;;;;;;;;748447;186;819105;-69
2022/10/01 06:32:00;;;;;;;33.10;22.07;;;;;;;;;;742176;187;919017;-68
2022/10/01 06:34:26;;;;;;;32.70;20.00;;;;;;;;;;741496;187;918595;-67
2022/10/01 06:36:52;;;;;;;36.83;21.90;;;;;;;;;;742923;187;886310;-67
2022/10/01 06:39:18;;;;;;;33.47;20.37;;;;;;;;;;757088;182;918957;-66
2022/10/01 06:41:43;;;;;;;32.90;20.30;;;;;;;;;;741815;187;901329;-69
2022/10/01 06:44:09;;;;;;;31.60;20.20;;;;;;;;;;742560;187;920001;-68
2022/10/01 06:46:35;;;;;;;31.02;18.45;;;;;;;;;;748634;187;919328;-66
2022/10/01 06:49:01;;;;;;;25.80;17.67;;;;;;;;;;743595;187;919122;-66
2022/10/01 06:53:59;;;;;;;34.00;16.73;;;;;;;;;;741385;185;915571;-66
2022/10/01 06:56:25;;;;;;;29.70;18.43;;;;;;;;;;744585;186;910014;-66
2022/10/01 06:58:51;;;;;;;30.13;20.40;;;;;;;;;;741132;187;919145;-68
2022/10/01 07:01:19;;;;;;;29.63;19.65;;;;;;;;;;744281;183;918672;-66
2022/10/01 07:03:42;;;;;;;30.83;18.83;;;;;;;;;;749358;185;762614;-68
2022/10/01 07:06:10;;;;;;;27.23;19.53;;;;;;;;;;743369;186;918676;-68
2022/10/01 07:08:34;;;;;;;30.03;20.50;;;;;;;;;;742081;186;922518;-67
2022/10/01 07:11:01;;;;;;;26.70;18.43;;;;;;;;;;747567;187;844250;-65
2022/10/01 07:13:26;;;;;;;26.20;17.57;;;;;;;;;;742630;187;918359;-67
2022/10/01 07:15:51;;;;;;;30.37;19.67;;;;;;;;;;742067;185;918729;-69
2022/10/01 07:18:18;;;;;;;27.13;17.80;;;;;;;;;;744973;186;951629;-68
2022/10/01 07:20:44;;;;;;;28.70;18.20;;;;;;;;;;745717;186;819162;-66
2022/10/01 07:23:10;;;;;;;22.20;14.37;;;;;;;;;;744119;185;919464;-65
2022/10/01 07:25:37;;;;;;;27.40;16.60;;;;;;;;;;742632;184;918430;-65
2022/10/01 07:28:03;;;;;;;21.10;14.90;;;;;;;;;;749204;187;919577;-66
2022/10/01 07:30:28;;;;;;;26.50;15.50;;;;;;;;;;743963;186;843254;-66
2022/10/01 07:32:53;;;;;;;22.57;16.10;;;;;;;;;;744235;185;877068;-68
2022/10/01 07:35:19;;;;;;;19.30;14.27;;;;;;;;;;748283;185;812465;-69
2022/10/01 07:37:46;;;;;;;23.75;15.23;;;;;;;;;;741058;185;919443;-66
2022/10/01 07:40:12;;;;;;;21.37;14.07;;;;;;;;;;740367;186;926659;-69
2022/10/01 07:42:38;;;;;;;22.80;14.80;;;;;;;;;;748601;186;874731;-69
2022/10/01 07:45:05;;;;;;;29.50;13.60;;;;;;;;;;742987;186;887846;-65
2022/10/01 07:47:30;;;;;;;20.47;14.07;;;;;;;;;;744200;186;813163;-66
2022/10/01 07:49:55;;;;;;;19.83;14.10;;;;;;;;;;742296;187;811380;-67
2022/10/01 07:52:21;;;;;;;23.80;15.83;;;;;;;;;;750378;187;816519;-64
2022/10/01 07:54:47;;;;;;;23.43;15.43;;;;;;;;;;745719;187;804464;-68
2022/10/01 07:57:14;;;;;;;24.10;17.02;;;;;;;;;;740625;187;917387;-67
2022/10/01 07:59:39;;;;;;;26.40;17.93;;;;;;;;;;746468;186;819287;-65
2022/10/01 08:02:05;;;;;;;23.57;15.07;;;;;;;;;;743576;186;812553;-69
2022/10/01 08:07:03;;;;;;;21.37;13.80;;;;;;;;;;742241;186;918055;-68
2022/10/01 08:09:29;;;;;;;21.55;13.57;;;;;;;;;;748155;185;816378;-65
2022/10/01 08:11:54;;;;;;;18.03;13.57;;;;;;;;;;742243;186;918709;-65
2022/10/01 08:14:20;;;;;;;18.20;13.50;;;;;;;;;;743548;186;816402;-69
2022/10/01 08:16:46;;;;;;;17.93;12.53;;;;;;;;;;751664;187;627073;-68
2022/10/01 08:19:12;;;;;;;17.20;12.03;;;;;;;;;;744960;185;817531;-68
2022/10/01 08:21:38;;;;;;;18.07;13.60;;;;;;;;;;745401;186;914537;-68
2022/10/01 08:24:03;;;;;;;21.53;13.60;;;;;;;;;;748843;185;913782;-64
2022/10/01 08:26:29;;;;;;;17.27;13.20;;;;;;;;;;744514;185;870488;-65
2022/10/01 08:28:55;;;;;;;18.03;13.20;;;;;;;;;;741093;186;820295;-68
2022/10/01 08:31:21;;;;;;;19.10;12.13;;;;;;;;;;742627;187;920133;-63
2022/10/01 08:33:47;;;;;;;19.27;12.40;;;;;;;;;;746618;184;918862;-64
2022/10/01 08:36:13;;;;;;;17.27;12.17;;;;;;;;;;751673;186;617456;-64
2022/10/01 08:38:39;;;;;;;15.33;11.13;;;;;;;;;;750772;186;639243;-64
2022/10/01 08:41:06;;;;;;;16.43;11.63;;;;;;;;;;753190;186;625405;-64
2022/10/01 08:43:33;;;;;;;15.57;11.90;;;;;;;;;;738025;186;919797;-64
2022/10/01 08:46:01;;;;;;;17.60;11.20;;;;;;;;;;741698;187;918234;-64
2022/10/01 08:48:29;;;;;;;17.45;11.15;;;;;;;;;;742883;185;919527;-64
2022/10/01 08:50:54;;;;;;;16.33;11.93;;;;;;;;;;741214;188;916907;-64
2022/10/01 08:53:21;;;;;;;16.07;11.40;;;;;;;;;;738078;188;919077;-64
2022/10/01 08:55:46;;;;;;;15.00;11.33;;;;;;;;;;741168;184;918988;-70
2022/10/01 08:58:12;;;;;;;13.13;11.00;;;;;;;;;;746336;187;919558;-65
2022/10/01 09:00:38;;;;;;;17.33;11.13;;;;;;;;;;741588;186;815760;-63
2022/10/01 09:03:04;;;;;;;12.73;10.07;;;;;;;;;;744057;187;911526;-69
2022/10/01 09:05:30;;;;;;;21.90;9.90;;;;;;;;;;749132;187;918939;-69
2022/10/01 09:08:15;;;;;;;16.67;10.77;;;;;;;;;;739749;187;918503;-64
2022/10/01 09:10:43;;;;;;;13.90;10.53;;;;;;;;;;742214;186;816837;-68
2022/10/01 09:13:15;;;;;;;16.83;10.60;;;;;;;;;;743150;184;918896;-63
2022/10/01 09:15:51;;;;;;;13.77;9.93;;;;;;;;;;738902;185;1021297;-71
2022/10/01 09:18:31;;;;;;;14.00;10.40;;;;;;;;;;741598;186;920769;-66
2022/10/01 09:20:58;;;;;;;12.67;9.53;;;;;;;;;;743391;187;917586;-66
2022/10/01 09:23:26;;;;;;;15.13;10.20;;;;;;;;;;747078;187;916737;-66
2022/10/01 09:25:52;;;;;;;14.63;10.17;;;;;;;;;;747280;187;808301;-70
2022/10/01 09:28:20;;;;;;;20.73;11.00;;;;;;;;;;744766;186;918915;-70
2022/10/01 09:30:48;;;;;;;18.60;11.10;;;;;;;;;;747251;187;919296;-70
2022/10/01 09:33:14;;;;;;;15.80;11.37;;;;;;;;;;744546;186;918958;-67
2022/10/01 09:35:42;;;;;;;16.43;11.70;;;;;;;;;;740124;187;910954;-66
2022/10/01 09:38:17;;;;;;;15.25;12.37;;;;;;;;;;742561;186;917851;-70
2022/10/01 09:40:44;;;;;;;16.37;12.00;;;;;;;;;;746355;187;817444;-70
2022/10/01 09:43:10;;;;;;;19.60;12.80;;;;;;;;;;748268;186;918380;-69
2022/10/01 09:45:35;;;;;;;16.87;11.33;;;;;;;;;;744118;185;920152;-70
2022/10/01 09:48:02;;;;;;;15.90;12.80;;;;;;;;;;744525;185;919833;-66
2022/10/01 09:50:30;;;;;;;19.83;13.23;;;;;;;;;;749718;186;817639;-65
2022/10/01 09:52:56;;;;;;;15.80;11.87;;;;;;;;;;743949;186;918929;-69
2022/10/01 09:55:22;;;;;;;18.53;12.63;;;;;;;;;;746277;187;820701;-66
2022/10/01 09:57:49;;;;;;;18.63;13.37;;;;;;;;;;747510;187;818447;-66
2022/10/01 10:00:16;;;;;;;17.20;12.93;;;;;;;;;;743257;187;915603;-69
2022/10/01 10:02:43;;;;;;;25.23;15.00;;;;;;;;;;741864;186;919598;-69
2022/10/01 10:05:10;;;;;;;25.00;13.47;;;;;;;;;;740301;187;919879;-69
2022/10/01 10:07:37;;;;;;;17.60;14.07;;;;;;;;;;748160;187;917276;-69
2022/10/01 10:10:23;;;;;;;17.30;12.93;;;;;;;;;;743657;186;893348;-69
2022/10/01 10:12:48;;;;;;;14.47;12.53;;;;;;;;;;744879;185;918084;-69
2022/10/01 10:15:15;;;;;;;18.57;13.10;;;;;;;;;;742123;186;919699;-70
2022/10/01 10:17:40;;;;;;;19.00;15.43;;;;;;;;;;748283;187;823197;-70
2022/10/01 10:20:08;;;;;;;17.40;13.40;;;;;;;;;;742988;187;918987;-66
2022/10/01 10:22:34;;;;;;;16.50;12.43;;;;;;;;;;740397;187;917116;-65
2022/10/01 10:25:04;;;;;;;16.20;12.80;;;;;;;;;;743685;184;914872;-69
2022/10/01 10:27:26;;;;;;;16.93;11.80;;;;;;;;;;746979;186;971537;-65
2022/10/01 10:29:57;;;;;;;16.47;12.40;;;;;;;;;;743872;186;885463;-64
2022/10/01 10:32:23;;;;;;;14.63;11.73;;;;;;;;;;745208;186;941661;-64
2022/10/01 10:34:49;;;;;;;17.10;12.40;;;;;;;;;;747536;186;919736;-68
2022/10/01 10:37:15;;;;;;;15.33;11.77;;;;;;;;;;745830;184;787235;-63
2022/10/01 10:39:41;;;;;;;13.77;10.70;;;;;;;;;;741102;186;920127;-70
2022/10/01 10:42:07;;;;;;;11.97;9.73;;;;;;;;;;743846;186;875937;-62
2022/10/01 10:44:36;;;;;;;12.17;9.10;;;;;;;;;;748599;186;826117;-68
2022/10/01 10:47:01;;;;;;;13.20;9.13;;;;;;;;;;743402;187;722762;-68
2022/10/01 10:49:28;;;;;;;10.30;8.13;;;;;;;;;;742210;186;852973;-67
2022/10/01 10:51:53;;;;;;;11.60;9.33;;;;;;;;;;748598;186;918565;-67
2022/10/01 10:54:20;;;;;;;11.27;7.90;;;;;;;;;;745910;187;815695;-62
2022/10/01 10:56:50;;;;;;;10.33;8.13;;;;;;;;;;745557;185;911648;-62
2022/10/01 10:59:16;;;;;;;9.07;7.10;;;;;;;;;;746334;186;812734;-62
2022/10/01 11:01:41;;;;;;;10.27;7.90;;;;;;;;;;747730;186;919702;-62
2022/10/01 11:04:08;;;;;;;19.13;9.33;;;;;;;;;;742718;185;925554;-61
2022/10/01 11:06:34;;;;;;;11.80;9.23;;;;;;;;;;742419;187;917901;-62
2022/10/01 11:09:00;;;;;;;13.40;9.40;;;;;;;;;;749084;185;776270;-62
2022/10/01 11:11:36;;;;;;;12.50;8.10;;;;;;;;;;743876;186;821766;-61
2022/10/01 11:14:07;;;;;;;12.80;7.63;;;;;;;;;;742785;186;921931;-64
2022/10/01 11:16:53;;;;;;;11.48;9.23;;;;;;;;;;743185;187;918975;-61
2022/10/01 11:19:18;;;;;;;13.47;9.47;;;;;;;;;;731394;187;894361;-62
2022/10/01 11:21:47;;;;;;;11.07;8.30;;;;;;;;;;742685;186;881221;-62
2022/10/01 11:24:12;;;;;;;10.63;9.37;;;;;;;;;;746733;187;919933;-62
2022/10/01 11:26:37;;;;;;;11.93;9.20;;;;;;;;;;746093;187;623729;-66
2022/10/01 11:29:03;;;;;;;10.17;7.93;;;;;;;;;;741190;187;914258;-66
2022/10/01 11:31:29;;;;;;;16.27;9.30;;;;;;;;;;747221;186;815412;-62
2022/10/01 11:34:10;;;;;;;9.77;7.50;;;;;;;;;;744388;187;814800;-66
2022/10/01 11:36:40;;;;;;;13.90;8.70;;;;;;;;;;739459;186;919627;-67
2022/10/01 11:39:17;;;;;;;11.00;8.70;;;;;;;;;;740746;187;916442;-62
2022/10/01 11:41:46;;;;;;;10.50;9.20;;;;;;;;;;740109;187;919339;-63
2022/10/01 11:44:12;;;;;;;10.97;8.23;;;;;;;;;;747269;186;715690;-68
2022/10/01 11:46:40;;;;;;;11.27;8.50;;;;;;;;;;741317;187;918990;-63
2022/10/01 11:49:17;;;;;;;11.07;9.30;;;;;;;;;;742573;187;809661;-67
2022/10/01 11:51:43;;;;;;;10.67;9.20;;;;;;;;;;741927;187;912693;-67
2022/10/01 11:54:09;;;;;;;16.77;9.83;;;;;;;;;;747400;185;909151;-62
2022/10/01 11:59:14;;;;;;;11.90;9.73;;;;;;;;;;739347;187;919433;-67
2022/10/01 12:01:40;;;;;;;13.67;9.10;;;;;;;;;;740350;184;914608;-67
2022/10/01 12:04:12;;;;;;;11.37;7.87;;;;;;;;;;742941;185;912128;-67
2022/10/01 12:06:44;;;;;;;15.33;7.77;;;;;;;;;;744107;186;916700;-68
2022/10/01 12:09:12;;;;;;;10.97;8.80;;;;;;;;;;748077;184;816931;-64
2022/10/01 12:11:37;;;;;;;11.07;8.30;;;;;;;;;;744271;185;915141;-67
2022/10/01 12:14:08;;;;;;;9.63;8.10;;;;;;;;;;743099;186;894130;-66
2022/10/01 12:16:39;;;;;;;10.87;9.00;;;;;;;;;;750059;186;815071;-66
2022/10/01 12:19:04;;;;;;;9.60;7.75;;;;;;;;;;741083;187;918989;-62
2022/10/01 12:21:31;;;;;;;11.30;7.30;;;;;;;;;;740974;187;912583;-66
2022/10/01 12:24:03;;;;;;;11.90;7.60;;;;;;;;;;745515;186;817052;-65
2022/10/01 12:26:45;;;;;;;10.63;8.43;;;;;;;;;;747733;187;919489;-62
2022/10/01 12:29:17;;;;;;;11.93;9.50;;;;;;;;;;741294;187;919171;-63
2022/10/01 12:32:03;;;;;;;16.57;10.40;;;;;;;;;;742933;187;917035;-64
2022/10/01 12:34:35;;;;;;;12.73;10.03;;;;;;;;;;748486;187;918009;-64
2022/10/01 12:37:06;;;;;;;12.43;9.90;;;;;;;;;;741217;187;916378;-65
2022/10/01 12:39:29;;;;;;;14.27;10.93;;;;;;;;;;741772;185;923792;-65
2022/10/01 12:42:09;;;;;;;12.03;10.13;;;;;;;;;;748789;187;625053;-68
2022/10/01 12:44:48;;;;;;;13.07;10.70;;;;;;;;;;753358;186;918866;-64
2022/10/01 12:47:14;;;;;;;10.37;8.43;;;;;;;;;;751513;187;893670;-62
2022/10/01 12:49:43;;;;;;;10.40;9.10;;;;;;;;;;749759;184;626224;-62
2022/10/01 12:52:13;;;;;;;12.20;8.20;;;;;;;;;;745535;187;622320;-61
2022/10/01 12:54:45;;;;;;;11.43;8.67;;;;;;;;;;743224;185;919630;-66
2022/10/01 12:57:27;;;;;;;10.40;9.20;;;;;;;;;;745911;187;880532;-62
2022/10/01 12:59:58;;;;;;;12.37;9.10;;;;;;;;;;745747;187;719556;-62
2022/10/01 13:02:22;;;;;;;13.70;9.27;;;;;;;;;;751269;187;617871;-67
2022/10/01 13:04:54;;;;;;;16.23;9.80;;;;;;;;;;749906;187;621428;-62
2022/10/01 13:07:36;;;;;;;10.43;7.90;;;;;;;;;;744766;186;631365;-67
2022/10/01 13:10:03;;;;;;;9.93;8.70;;;;;;;;;;738320;187;885298;-62
2022/10/01 13:12:33;;;;;;;11.20;9.90;;;;;;;;;;745290;187;917927;-62
2022/10/01 13:14:58;;;;;;;12.73;10.90;;;;;;;;;;745196;186;844606;-67
2022/10/01 13:17:24;;;;;;;10.07;8.50;;;;;;;;;;743999;186;824763;-67
2022/10/01 13:19:51;;;;;;;11.47;9.50;;;;;;;;;;740665;186;931204;-67
2022/10/01 13:22:20;;;;;;;12.30;9.30;;;;;;;;;;745790;186;918766;-63
2022/10/01 13:24:48;;;;;;;11.10;7.43;;;;;;;;;;743065;186;919196;-63
2022/10/01 13:27:15;;;;;;;15.57;9.50;;;;;;;;;;744842;186;922364;-67
2022/10/01 13:29:40;;;;;;;10.90;8.10;;;;;;;;;;746132;187;921378;-67
2022/10/01 13:32:25;;;;;;;10.77;8.60;;;;;;;;;;747498;186;916497;-63
2022/10/01 13:34:51;;;;;;;10.80;8.60;;;;;;;;;;745989;185;892014;-68
2022/10/01 13:37:17;;;;;;;11.73;9.53;;;;;;;;;;741781;186;919325;-68
2022/10/01 13:39:44;;;;;;;14.20;9.83;;;;;;;;;;744233;185;915715;-64
2022/10/01 13:42:11;;;;;;;12.67;9.83;;;;;;;;;;748187;187;911144;-69
2022/10/01 13:44:39;;;;;;;16.13;9.40;;;;;;;;;;741998;186;916029;-68
2022/10/01 13:47:05;;;;;;;10.27;9.17;;;;;;;;;;745056;187;919474;-68
2022/10/01 13:49:29;;;;;;;11.33;9.87;;;;;;;;;;747027;185;944526;-63
2022/10/01 13:51:54;;;;;;;10.10;8.63;;;;;;;;;;747742;185;619718;-63
2022/10/01 13:54:27;;;;;;;9.53;8.20;;;;;;;;;;743572;186;818676;-68
2022/10/01 13:56:51;;;;;;;11.98;9.45;;;;;;;;;;741182;187;919194;-63
2022/10/01 13:59:17;;;;;;;10.03;8.87;;;;;;;;;;745780;186;816480;-69
2022/10/01 14:01:43;;;;;;;12.20;9.80;;;;;;;;;;742090;187;717420;-63
2022/10/01 14:04:18;;;;;;;13.62;10.10;;;;;;;;;;741868;185;816815;-68
2022/10/01 14:06:59;;;;;;;12.27;9.50;;;;;;;;;;740852;187;918960;-64
2022/10/01 14:09:26;;;;;;;11.20;8.70;;;;;;;;;;744402;187;816826;-68
2022/10/01 14:16:57;;;;;;;12.23;9.03;;;;;;;;;;740262;187;919167;-63
2022/10/01 14:19:23;;;;;;;15.95;10.05;;;;;;;;;;742507;187;919102;-68
2022/10/01 14:21:52;;;;;;;14.80;9.73;;;;;;;;;;746345;185;923988;-64